Marine Rouge — JG5115 — position and weather

sailwx.info

Track history (hours):
 
Tides and Currents Weather Stations Pressure Air Temp Water Temp Dewpoint Dewpoint Depression Visibility Wind Speed Wind Dir Waves Ship Positions

Marine Rouge

Last reported at 2017-Jan-20 01:32 UTC. Time now 2017-Jan-21 13:22 UTC.
Position N 35°14' E 139°46'.

Length 52 m; draft 2.8 m.

Type: Passenger vessel. MMSI: 431000518.

Date/timePositionNaut miles runAvg speedWind from/ knotsBaromVisibWave heightAir tempDewpointWater temp
2017-Jan-20 01:32N 35°14' E 139°46'1110.8
2017-Jan-20 00:33N 35°24' E 139°42'4 4.1
2017-Jan-19 23:33N 35°27' E 139°39'0 0.0
2017-Jan-19 22:33N 35°27' E 139°39'1 0.1
2017-Jan-19 11:33N 35°28' E 139°40'0 0.5
2017-Jan-19 10:33N 35°28' E 139°39'1 0.9
2017-Jan-19 09:33N 35°27' E 139°39'0 0.0
2017-Jan-19 08:33N 35°27' E 139°39'1 0.5
2017-Jan-19 07:34N 35°27' E 139°39'1 0.5
2017-Jan-19 06:33N 35°27' E 139°39'0 0.1
2017-Jan-19 05:34N 35°27' E 139°39'1 0.6
2017-Jan-19 04:33N 35°27' E 139°39'1 0.5
2017-Jan-19 03:33N 35°27' E 139°39'1 0.5
2017-Jan-19 02:33N 35°27' E 139°39'0 0.0
2017-Jan-19 01:33N 35°27' E 139°39'1 0.1
2017-Jan-18 11:33N 35°28' E 139°40'0 0.5
2017-Jan-18 10:33N 35°27' E 139°39'1 0.7
2017-Jan-18 09:34N 35°27' E 139°39'0 0.0
2017-Jan-18 08:33N 35°27' E 139°39'1 0.7
2017-Jan-18 07:34N 35°27' E 139°39'1 0.7
2017-Jan-18 06:33N 35°27' E 139°39'0 0.1
2017-Jan-18 05:34N 35°27' E 139°39'0 0.1
2017-Jan-18 04:33N 35°27' E 139°39'1 0.6
2017-Jan-18 03:33N 35°27' E 139°39'1 0.6
2017-Jan-18 02:33N 35°27' E 139°39'0 0.0
2017-Jan-18 01:33N 35°27' E 139°39'0 0.0
2017-Jan-17 12:15N 35°27' E 139°39'3 4.0
2017-Jan-17 11:34N 35°27' E 139°42'3 2.9
2017-Jan-17 10:34N 35°27' E 139°39'1 0.6
2017-Jan-17 09:34N 35°27' E 139°39'0 0.0
2017-Jan-17 08:34N 35°27' E 139°39'1 0.5
2017-Jan-17 07:34N 35°27' E 139°39'1 0.5
2017-Jan-17 06:34N 35°27' E 139°39'0 0.1
2017-Jan-17 05:34N 35°27' E 139°39'0 0.5
2017-Jan-17 04:34N 35°27' E 139°39'0 0.2
2017-Jan-17 03:34N 35°27' E 139°39'1 0.6
2017-Jan-17 02:33N 35°27' E 139°39'0 0.0
2017-Jan-17 01:34N 35°27' E 139°39'0 0.0
2017-Jan-17 00:34N 35°27' E 139°39'0 0.0
2017-Jan-16 12:31N 35°27' E 139°39'1 1.1
2017-Jan-16 11:33N 35°28' E 139°40'1 0.7
2017-Jan-16 10:33N 35°27' E 139°39'1 0.6
2017-Jan-16 09:33N 35°27' E 139°39'0 0.0
2017-Jan-16 08:33N 35°27' E 139°39'1 0.6
2017-Jan-16 07:33N 35°27' E 139°39'1 0.6
2017-Jan-16 06:33N 35°27' E 139°39'0 0.0
2017-Jan-16 05:33N 35°27' E 139°39'0 0.0
2017-Jan-16 04:33N 35°27' E 139°39'1 0.5
2017-Jan-16 03:33N 35°27' E 139°39'1 0.5
2017-Jan-16 02:33N 35°27' E 139°39'0 0.0
2017-Jan-16 01:33N 35°27' E 139°39'0 0.0
2017-Jan-16 00:33N 35°27' E 139°39'0 0.0
2017-Jan-15 12:33N 35°27' E 139°39'1 1.2
2017-Jan-15 11:33N 35°28' E 139°40'1 0.8
2017-Jan-15 10:33N 35°27' E 139°39'1 0.6
2017-Jan-15 09:33N 35°27' E 139°39'0 0.0
2017-Jan-15 08:33N 35°27' E 139°39'1 0.5
2017-Jan-15 07:34N 35°27' E 139°39'1 0.5
2017-Jan-15 06:33N 35°27' E 139°39'0 0.1
2017-Jan-15 05:33N 35°27' E 139°39'0 0.1
2017-Jan-15 04:33N 35°27' E 139°39'1 0.6
2017-Jan-15 03:33N 35°27' E 139°39'1 0.6
2017-Jan-15 02:33N 35°27' E 139°39'0 0.0
2017-Jan-15 01:33N 35°27' E 139°39'0 0.0
2017-Jan-15 00:33N 35°27' E 139°39'1 0.1
2017-Jan-14 11:33N 35°28' E 139°40'1 0.9
2017-Jan-14 10:33N 35°28' E 139°39'1 0.8
2017-Jan-14 09:33N 35°27' E 139°39'0 0.0
2017-Jan-14 08:33N 35°27' E 139°39'1 0.5
2017-Jan-14 07:34N 35°27' E 139°39'1 0.5
2017-Jan-14 06:33N 35°27' E 139°39'0 0.1
2017-Jan-14 05:34N 35°27' E 139°39'0 0.1
2017-Jan-14 04:33N 35°27' E 139°39'1 0.5
2017-Jan-14 03:34N 35°27' E 139°39'1 0.0
2017-Jan-13 12:31N 35°27' E 139°39'1 1.1
2017-Jan-13 11:34N 35°28' E 139°40'1 0.6
2017-Jan-13 10:33N 35°27' E 139°39'1 0.6
2017-Jan-13 09:34N 35°27' E 139°39'0 0.0
2017-Jan-13 08:34N 35°27' E 139°39'1 0.5
2017-Jan-13 07:34N 35°27' E 139°39'1 0.5
2017-Jan-13 06:33N 35°27' E 139°39'0 0.1
2017-Jan-13 05:33N 35°27' E 139°39'0 0.1
2017-Jan-13 04:33N 35°27' E 139°39'0 0.0
2017-Jan-13 03:34N 35°27' E 139°39'0 0.0
2017-Jan-13 02:33N 35°27' E 139°39'0 0.0
2017-Jan-13 01:34N 35°27' E 139°39'0 0.0
2017-Jan-13 00:34N 35°27' E 139°39'0 0.0
2017-Jan-12 12:20N 35°27' E 139°39'1 1.4
2017-Jan-12 11:34N 35°28' E 139°40'1 0.7
2017-Jan-12 10:33N 35°28' E 139°39'1 0.8
2017-Jan-12 09:34N 35°27' E 139°39'1 0.8
2017-Jan-12 08:34N 35°27' E 139°40'1 0.6
2017-Jan-12 07:33N 35°27' E 139°39'1 0.6
2017-Jan-12 06:34N 35°27' E 139°39'0 0.1
2017-Jan-12 05:34N 35°27' E 139°39'0 0.1
2017-Jan-12 04:33N 35°27' E 139°39'1 0.7
2017-Jan-12 03:33N 35°27' E 139°39'1 0.7
2017-Jan-12 02:33N 35°27' E 139°39'0 0.0
2017-Jan-12 01:34N 35°27' E 139°39'0 0.0
2017-Jan-11 12:31N 35°27' E 139°39'1 1.0
2017-Jan-11 11:33N 35°28' E 139°40'0 0.4
2017-Jan-11 10:33N 35°27' E 139°39'1 0.6
2017-Jan-11 09:33N 35°27' E 139°39'0 0.2
2017-Jan-11 08:33N 35°27' E 139°39'0 0.5
2017-Jan-11 07:33N 35°27' E 139°39'1 0.5
2017-Jan-11 06:33N 35°27' E 139°39'0 0.1
2017-Jan-11 05:33N 35°27' E 139°39'0 0.1
2017-Jan-11 04:33N 35°27' E 139°39'0 0.4
2017-Jan-11 03:34N 35°27' E 139°39'1 0.5
2017-Jan-11 02:33N 35°27' E 139°39'0 0.0
2017-Jan-11 01:33N 35°27' E 139°39'1 0.1
2017-Jan-10 11:34N 35°28' E 139°39'0 0.4
2017-Jan-10 10:33N 35°27' E 139°39'1 0.6
2017-Jan-10 09:33N 35°27' E 139°39'1 1.1
2017-Jan-10 08:33N 35°28' E 139°40'1 0.8
2017-Jan-10 07:34N 35°27' E 139°39'1 0.6
2017-Jan-10 06:33N 35°27' E 139°39'0 0.1
2017-Jan-10 05:34N 35°27' E 139°39'0 0.3
2017-Jan-10 04:33N 35°27' E 139°39'0 0.3
2017-Jan-10 03:34N 35°27' E 139°39'1 0.5
2017-Jan-10 02:33N 35°27' E 139°39'0 0.0
2017-Jan-10 01:33N 35°27' E 139°39'  
Track history (hours):
 
Tides and Currents Weather Stations Pressure Air Temp Water Temp Dewpoint Dewpoint Depression Visibility Wind Speed Wind Dir Waves Ship Positions

Marine Rouge

Last reported at 2017-Jan-20 01:32 UTC. Time now 2017-Jan-21 13:22 UTC.
Position N 35°14' E 139°46'.

Length 52 m; draft 2.8 m.

Type: Passenger vessel. MMSI: 431000518.

Date/timePositionNaut miles runAvg speedWind from/ knotsBaromVisibWave heightAir tempDewpointWater temp
2017-Jan-20 01:32N 35°14' E 139°46'1110.8
2017-Jan-20 00:33N 35°24' E 139°42'4 4.1
2017-Jan-19 23:33N 35°27' E 139°39'0 0.0
2017-Jan-19 22:33N 35°27' E 139°39'1 0.1
2017-Jan-19 11:33N 35°28' E 139°40'0 0.5
2017-Jan-19 10:33N 35°28' E 139°39'1 0.9
2017-Jan-19 09:33N 35°27' E 139°39'0 0.0
2017-Jan-19 08:33N 35°27' E 139°39'1 0.5
2017-Jan-19 07:34N 35°27' E 139°39'1 0.5
2017-Jan-19 06:33N 35°27' E 139°39'0 0.1
2017-Jan-19 05:34N 35°27' E 139°39'1 0.6
2017-Jan-19 04:33N 35°27' E 139°39'1 0.5
2017-Jan-19 03:33N 35°27' E 139°39'1 0.5
2017-Jan-19 02:33N 35°27' E 139°39'0 0.0
2017-Jan-19 01:33N 35°27' E 139°39'1 0.1
2017-Jan-18 11:33N 35°28' E 139°40'0 0.5
2017-Jan-18 10:33N 35°27' E 139°39'1 0.7
2017-Jan-18 09:34N 35°27' E 139°39'0 0.0
2017-Jan-18 08:33N 35°27' E 139°39'1 0.7
2017-Jan-18 07:34N 35°27' E 139°39'1 0.7
2017-Jan-18 06:33N 35°27' E 139°39'0 0.1
2017-Jan-18 05:34N 35°27' E 139°39'0 0.1
2017-Jan-18 04:33N 35°27' E 139°39'1 0.6
2017-Jan-18 03:33N 35°27' E 139°39'1 0.6
2017-Jan-18 02:33N 35°27' E 139°39'0 0.0
2017-Jan-18 01:33N 35°27' E 139°39'0 0.0
2017-Jan-17 12:15N 35°27' E 139°39'3 4.0
2017-Jan-17 11:34N 35°27' E 139°42'3 2.9
2017-Jan-17 10:34N 35°27' E 139°39'1 0.6
2017-Jan-17 09:34N 35°27' E 139°39'0 0.0
2017-Jan-17 08:34N 35°27' E 139°39'1 0.5
2017-Jan-17 07:34N 35°27' E 139°39'1 0.5
2017-Jan-17 06:34N 35°27' E 139°39'0 0.1
2017-Jan-17 05:34N 35°27' E 139°39'0 0.5
2017-Jan-17 04:34N 35°27' E 139°39'0 0.2
2017-Jan-17 03:34N 35°27' E 139°39'1 0.6
2017-Jan-17 02:33N 35°27' E 139°39'0 0.0
2017-Jan-17 01:34N 35°27' E 139°39'0 0.0
2017-Jan-17 00:34N 35°27' E 139°39'0 0.0
2017-Jan-16 12:31N 35°27' E 139°39'1 1.1
2017-Jan-16 11:33N 35°28' E 139°40'1 0.7
2017-Jan-16 10:33N 35°27' E 139°39'1 0.6
2017-Jan-16 09:33N 35°27' E 139°39'0 0.0
2017-Jan-16 08:33N 35°27' E 139°39'1 0.6
2017-Jan-16 07:33N 35°27' E 139°39'1 0.6
2017-Jan-16 06:33N 35°27' E 139°39'0 0.0
2017-Jan-16 05:33N 35°27' E 139°39'0 0.0
2017-Jan-16 04:33N 35°27' E 139°39'1 0.5
2017-Jan-16 03:33N 35°27' E 139°39'1 0.5
2017-Jan-16 02:33N 35°27' E 139°39'0 0.0
2017-Jan-16 01:33N 35°27' E 139°39'0 0.0
2017-Jan-16 00:33N 35°27' E 139°39'0 0.0
2017-Jan-15 12:33N 35°27' E 139°39'1 1.2
2017-Jan-15 11:33N 35°28' E 139°40'1 0.8
2017-Jan-15 10:33N 35°27' E 139°39'1 0.6
2017-Jan-15 09:33N 35°27' E 139°39'0 0.0
2017-Jan-15 08:33N 35°27' E 139°39'1 0.5
2017-Jan-15 07:34N 35°27' E 139°39'1 0.5
2017-Jan-15 06:33N 35°27' E 139°39'0 0.1
2017-Jan-15 05:33N 35°27' E 139°39'0 0.1
2017-Jan-15 04:33N 35°27' E 139°39'1 0.6
2017-Jan-15 03:33N 35°27' E 139°39'1 0.6
2017-Jan-15 02:33N 35°27' E 139°39'0 0.0
2017-Jan-15 01:33N 35°27' E 139°39'0 0.0
2017-Jan-15 00:33N 35°27' E 139°39'1 0.1
2017-Jan-14 11:33N 35°28' E 139°40'1 0.9
2017-Jan-14 10:33N 35°28' E 139°39'1 0.8
2017-Jan-14 09:33N 35°27' E 139°39'0 0.0
2017-Jan-14 08:33N 35°27' E 139°39'1 0.5
2017-Jan-14 07:34N 35°27' E 139°39'1 0.5
2017-Jan-14 06:33N 35°27' E 139°39'0 0.1
2017-Jan-14 05:34N 35°27' E 139°39'0 0.1
2017-Jan-14 04:33N 35°27' E 139°39'1 0.5
2017-Jan-14 03:34N 35°27' E 139°39'1 0.0
2017-Jan-13 12:31N 35°27' E 139°39'1 1.1
2017-Jan-13 11:34N 35°28' E 139°40'1 0.6
2017-Jan-13 10:33N 35°27' E 139°39'1 0.6
2017-Jan-13 09:34N 35°27' E 139°39'0 0.0
2017-Jan-13 08:34N 35°27' E 139°39'1 0.5
2017-Jan-13 07:34N 35°27' E 139°39'1 0.5
2017-Jan-13 06:33N 35°27' E 139°39'0 0.1
2017-Jan-13 05:33N 35°27' E 139°39'0 0.1
2017-Jan-13 04:33N 35°27' E 139°39'0 0.0
2017-Jan-13 03:34N 35°27' E 139°39'0 0.0
2017-Jan-13 02:33N 35°27' E 139°39'0 0.0
2017-Jan-13 01:34N 35°27' E 139°39'0 0.0
2017-Jan-13 00:34N 35°27' E 139°39'0 0.0
2017-Jan-12 12:20N 35°27' E 139°39'1 1.4
2017-Jan-12 11:34N 35°28' E 139°40'1 0.7
2017-Jan-12 10:33N 35°28' E 139°39'1 0.8
2017-Jan-12 09:34N 35°27' E 139°39'1 0.8
2017-Jan-12 08:34N 35°27' E 139°40'1 0.6
2017-Jan-12 07:33N 35°27' E 139°39'1 0.6
2017-Jan-12 06:34N 35°27' E 139°39'0 0.1
2017-Jan-12 05:34N 35°27' E 139°39'0 0.1
2017-Jan-12 04:33N 35°27' E 139°39'1 0.7
2017-Jan-12 03:33N 35°27' E 139°39'1 0.7
2017-Jan-12 02:33N 35°27' E 139°39'0 0.0
2017-Jan-12 01:34N 35°27' E 139°39'0 0.0
2017-Jan-11 12:31N 35°27' E 139°39'1 1.0
2017-Jan-11 11:33N 35°28' E 139°40'0 0.4
2017-Jan-11 10:33N 35°27' E 139°39'1 0.6
2017-Jan-11 09:33N 35°27' E 139°39'0 0.2
2017-Jan-11 08:33N 35°27' E 139°39'0 0.5
2017-Jan-11 07:33N 35°27' E 139°39'1 0.5
2017-Jan-11 06:33N 35°27' E 139°39'0 0.1
2017-Jan-11 05:33N 35°27' E 139°39'0 0.1
2017-Jan-11 04:33N 35°27' E 139°39'0 0.4
2017-Jan-11 03:34N 35°27' E 139°39'1 0.5
2017-Jan-11 02:33N 35°27' E 139°39'0 0.0
2017-Jan-11 01:33N 35°27' E 139°39'1 0.1
2017-Jan-10 11:34N 35°28' E 139°39'0 0.4
2017-Jan-10 10:33N 35°27' E 139°39'1 0.6
2017-Jan-10 09:33N 35°27' E 139°39'1 1.1
2017-Jan-10 08:33N 35°28' E 139°40'1 0.8
2017-Jan-10 07:34N 35°27' E 139°39'1 0.6
2017-Jan-10 06:33N 35°27' E 139°39'0 0.1
2017-Jan-10 05:34N 35°27' E 139°39'0 0.3
2017-Jan-10 04:33N 35°27' E 139°39'0 0.3
2017-Jan-10 03:34N 35°27' E 139°39'1 0.5
2017-Jan-10 02:33N 35°27' E 139°39'0 0.0
2017-Jan-10 01:33N 35°27' E 139°39'  

Dump ship's entire track history